Time;durP1;ratioP1;P1;durP2;ratioP2;P2;SDS_P1;SDS_P2;PMS_P1;PMS_P2;Temp;Humidity;BMP_temperature;BMP_pressure;BME280_temperature;BME280_humidity;BME280_pressure;Samples;Min_cycle;Max_cycle;Signal;HPM_P1;HPM_P2
2022/07/22 00:01:31;;;;;;;;;;;;;;;;;;5019891;28;20303;-87
2022/07/22 00:03:57;;;;;;;;;;;;;;;;;;5029369;28;19913;-87
2022/07/22 00:06:22;;;;;;;;;;;;;;;;;;5025886;28;19914;-87
2022/07/22 00:08:47;;;;;;;;;;;;;;;;;;5031261;28;19920;-87
2022/07/22 00:11:12;;;;;;;;;;;;;;;;;;5025775;28;19919;-87
2022/07/22 00:13:37;;;;;;;;;;;;;;;;;;5028492;28;20008;-87
2022/07/22 00:16:02;;;;;;;;;;;;;;;;;;5023902;28;20351;-87
2022/07/22 00:18:28;;;;;;;;;;;;;;;;;;5027057;28;19917;-87
2022/07/22 00:20:53;;;;;;;;;;;;;;;;;;5027220;28;19917;-87
2022/07/22 00:23:18;;;;;;;;;;;;;;;;;;5024198;28;20335;-87
2022/07/22 00:25:44;;;;;;;;;;;;;;;;;;5025350;28;19961;-87
2022/07/22 00:28:09;;;;;;;;;;;;;;;;;;5024707;28;19917;-86
2022/07/22 00:30:34;;;;;;;;;;;;;;;;;;5024292;28;19928;-86
2022/07/22 00:32:59;;;;;;;;;;;;;;;;;;5026472;28;19914;-87
2022/07/22 00:35:24;;;;;;;;;;;;;;;;;;5022296;28;19914;-87
2022/07/22 00:37:49;;;;;;;;;;;;;;;;;;5026051;28;19917;-87
2022/07/22 00:40:14;;;;;;;;;;;;;;;;;;5026326;28;20298;-87
2022/07/22 00:42:40;;;;;;;;;;;;;;;;;;5029157;28;19967;-87
2022/07/22 00:45:05;;;;;;;;;;;;;;;;;;5024924;28;20003;-87
2022/07/22 00:47:30;;;;;;;;;;;;;;;;;;5028983;28;19913;-87
2022/07/22 00:49:55;;;;;;;;;;;;;;;;;;5027759;28;20668;-87
2022/07/22 00:52:21;;;;;;;;;;;;;;;;;;5019277;28;20042;-87
2022/07/22 00:54:46;;;;;;;;;;;;;;;;;;5007557;28;19921;-87
2022/07/22 00:57:11;;;;;;;;;;;;;;;;;;5025526;28;20381;-87
2022/07/22 00:59:36;;;;;;;;;;;;;;;;;;5025317;28;19959;-86
2022/07/22 01:02:01;;;;;;;;;;;;;;;;;;5024139;28;19924;-87
2022/07/22 01:04:26;;;;;;;;;;;;;;;;;;5023917;28;19913;-88
2022/07/22 01:06:51;;;;;;;;;;;;;;;;;;5024669;28;19983;-87
2022/07/22 01:09:17;;;;;;;;;;;;;;;;;;5024558;28;20008;-87
2022/07/22 01:11:42;;;;;;;;;;;;;;;;;;5026938;28;19913;-87
2022/07/22 01:14:07;;;;;;;;;;;;;;;;;;5008901;28;20370;-86
2022/07/22 01:16:32;;;;;;;;;;;;;;;;;;5025589;28;19999;-87
2022/07/22 01:18:57;;;;;;;;;;;;;;;;;;5024059;28;20019;-87
2022/07/22 01:21:22;;;;;;;;;;;;;;;;;;5025599;28;20378;-87
2022/07/22 01:23:48;;;;;;;;;;;;;;;;;;5023382;28;20250;-86
2022/07/22 01:26:13;;;;;;;;;;;;;;;;;;5024126;28;20345;-87
2022/07/22 01:28:38;;;;;;;;;;;;;;;;;;5024716;28;19921;-86
2022/07/22 01:31:03;;;;;;;;;;;;;;;;;;5026278;28;19928;-86
2022/07/22 01:33:29;;;;;;;;;;;;;;;;;;5024602;28;19909;-87
2022/07/22 01:35:54;;;;;;;;;;;;;;;;;;5024914;28;19909;-87
2022/07/22 01:38:19;;;;;;;;;;;;;;;;;;5021344;28;20307;-87
2022/07/22 01:40:44;;;;;;;;;;;;;;;;;;5020943;28;19913;-86
2022/07/22 01:43:09;;;;;;;;;;;;;;;;;;5024366;28;19914;-86
2022/07/22 01:45:34;;;;;;;;;;;;;;;;;;5025032;28;20014;-87
2022/07/22 01:48:00;;;;;;;;;;;;;;;;;;5024690;28;19913;-87
2022/07/22 01:50:25;;;;;;;;;;;;;;;;;;5020114;28;20004;-87
2022/07/22 01:52:50;;;;;;;;;;;;;;;;;;5022188;28;19983;-86
2022/07/22 01:55:15;;;;;;;;;;;;;;;;;;5019606;28;20319;-87
2022/07/22 01:57:40;;;;;;;;;;;;;;;;;;5020334;28;19972;-87
2022/07/22 02:00:06;;;;;;;;;;;;;;;;;;5021376;28;20022;-87
2022/07/22 02:02:31;;;;;;;;;;;;;;;;;;5021977;28;19928;-86
2022/07/22 02:04:56;;;;;;;;;;;;;;;;;;5025301;28;19914;-86
2022/07/22 02:07:22;;;;;;;;;;;;;;;;;;5018588;28;19913;-86
2022/07/22 02:09:47;;;;;;;;;;;;;;;;;;5022051;28;20451;-86
2022/07/22 02:12:12;;;;;;;;;;;;;;;;;;5022149;28;19923;-86
2022/07/22 02:14:37;;;;;;;;;;;;;;;;;;5024767;28;19917;-87
2022/07/22 02:17:03;;;;;;;;;;;;;;;;;;5024978;28;20336;-87
2022/07/22 02:19:28;;;;;;;;;;;;;;;;;;5024764;28;19952;-87
2022/07/22 02:21:53;;;;;;;;;;;;;;;;;;5019329;28;19913;-86
2022/07/22 02:24:18;;;;;;;;;;;;;;;;;;5023706;28;19960;-86
2022/07/22 02:26:43;;;;;;;;;;;;;;;;;;5021457;28;19921;-86
2022/07/22 02:29:08;;;;;;;;;;;;;;;;;;5022620;28;20001;-87
2022/07/22 02:31:33;;;;;;;;;;;;;;;;;;5021396;28;19979;-86
2022/07/22 02:33:59;;;;;;;;;;;;;;;;;;5023001;28;19913;-87
2022/07/22 02:36:24;;;;;;;;;;;;;;;;;;5021736;28;19960;-86
2022/07/22 02:38:49;;;;;;;;;;;;;;;;;;5024603;28;19925;-86
2022/07/22 02:41:14;;;;;;;;;;;;;;;;;;5026791;28;19952;-86
2022/07/22 02:43:40;;;;;;;;;;;;;;;;;;5023488;28;19913;-86
2022/07/22 02:46:05;;;;;;;;;;;;;;;;;;5022981;28;19928;-86
2022/07/22 02:48:30;;;;;;;;;;;;;;;;;;5023457;28;19914;-86
2022/07/22 02:50:55;;;;;;;;;;;;;;;;;;5022122;28;19914;-86
2022/07/22 02:53:20;;;;;;;;;;;;;;;;;;5023326;28;19948;-86
2022/07/22 02:55:45;;;;;;;;;;;;;;;;;;5020830;28;19952;-86
2022/07/22 02:58:10;;;;;;;;;;;;;;;;;;5022844;28;19918;-86
2022/07/22 03:00:37;;;;;;;;;;;;;;;;;;5021463;28;20007;-87
2022/07/22 03:03:02;;;;;;;;;;;;;;;;;;5017479;28;20306;-87
2022/07/22 03:05:27;;;;;;;;;;;;;;;;;;5022707;28;19914;-86
2022/07/22 03:07:53;;;;;;;;;;;;;;;;;;5020321;28;19913;-86
2022/07/22 03:10:18;;;;;;;;;;;;;;;;;;5019753;28;20398;-87
2022/07/22 03:12:43;;;;;;;;;;;;;;;;;;5020494;28;20349;-86
2022/07/22 03:15:08;;;;;;;;;;;;;;;;;;5021711;28;19924;-86
2022/07/22 03:17:33;;;;;;;;;;;;;;;;;;5019968;28;20377;-86
2022/07/22 03:19:59;;;;;;;;;;;;;;;;;;5020591;28;19920;-86
2022/07/22 03:22:24;;;;;;;;;;;;;;;;;;5021242;28;20446;-86
2022/07/22 03:24:49;;;;;;;;;;;;;;;;;;5018722;28;19922;-86
2022/07/22 03:27:14;;;;;;;;;;;;;;;;;;5023509;28;19917;-86
2022/07/22 03:29:39;;;;;;;;;;;;;;;;;;5020438;28;19984;-86
2022/07/22 03:32:04;;;;;;;;;;;;;;;;;;5022236;28;19957;-85
2022/07/22 03:34:29;;;;;;;;;;;;;;;;;;5018616;28;19921;-85
2022/07/22 03:36:55;;;;;;;;;;;;;;;;;;5022256;28;19913;-85
2022/07/22 03:39:20;;;;;;;;;;;;;;;;;;5018268;28;19921;-85
2022/07/22 03:41:45;;;;;;;;;;;;;;;;;;5023111;28;19924;-85
2022/07/22 03:44:10;;;;;;;;;;;;;;;;;;5020010;28;20159;-85
2022/07/22 03:46:35;;;;;;;;;;;;;;;;;;5019197;28;19968;-84
2022/07/22 03:49:00;;;;;;;;;;;;;;;;;;5017290;28;19921;-85
2022/07/22 03:51:26;;;;;;;;;;;;;;;;;;5021791;28;19993;-85
2022/07/22 03:53:51;;;;;;;;;;;;;;;;;;5022413;28;19917;-85
2022/07/22 03:56:16;;;;;;;;;;;;;;;;;;5014710;28;20393;-85
2022/07/22 03:58:41;;;;;;;;;;;;;;;;;;5021314;28;19922;-85
2022/07/22 04:01:06;;;;;;;;;;;;;;;;;;5020206;28;20168;-85
2022/07/22 04:03:32;;;;;;;;;;;;;;;;;;5017839;28;19917;-86
2022/07/22 04:05:57;;;;;;;;;;;;;;;;;;5020306;28;20477;-86
2022/07/22 04:08:22;;;;;;;;;;;;;;;;;;5012211;28;19928;-86
2022/07/22 04:10:47;;;;;;;;;;;;;;;;;;5017360;28;19983;-86
2022/07/22 04:13:12;;;;;;;;;;;;;;;;;;5015516;28;19914;-86
2022/07/22 04:15:38;;;;;;;;;;;;;;;;;;5018259;28;19913;-86
2022/07/22 04:18:03;;;;;;;;;;;;;;;;;;5010538;28;19924;-86
2022/07/22 04:20:28;;;;;;;;;;;;;;;;;;5021805;28;19931;-87
2022/07/22 04:22:53;;;;;;;;;;;;;;;;;;5015422;28;19917;-86
2022/07/22 04:25:18;;;;;;;;;;;;;;;;;;5018700;28;19968;-86
2022/07/22 04:27:43;;;;;;;;;;;;;;;;;;5023902;28;20055;-86
2022/07/22 04:30:09;;;;;;;;;;;;;;;;;;5024037;28;20260;-86
2022/07/22 04:32:34;;;;;;;;;;;;;;;;;;5020901;28;19957;-86
2022/07/22 04:34:59;;;;;;;;;;;;;;;;;;5021875;28;19936;-86
2022/07/22 04:37:24;;;;;;;;;;;;;;;;;;5019865;28;20352;-87
2022/07/22 04:39:49;;;;;;;;;;;;;;;;;;5007307;28;19963;-87
2022/07/22 04:42:14;;;;;;;;;;;;;;;;;;5020396;28;19920;-86
2022/07/22 04:44:40;;;;;;;;;;;;;;;;;;5006751;28;20350;-86
2022/07/22 04:47:05;;;;;;;;;;;;;;;;;;5027170;28;19924;-86
2022/07/22 04:49:30;;;;;;;;;;;;;;;;;;5024626;28;20378;-86
2022/07/22 04:51:55;;;;;;;;;;;;;;;;;;5020007;28;19925;-86
2022/07/22 04:54:20;;;;;;;;;;;;;;;;;;5028740;28;19914;-85
2022/07/22 04:56:45;;;;;;;;;;;;;;;;;;5023116;28;19956;-85
2022/07/22 04:59:10;;;;;;;;;;;;;;;;;;5025520;28;19940;-86
2022/07/22 05:01:36;;;;;;;;;;;;;;;;;;5023693;28;20335;-86
2022/07/22 05:04:01;;;;;;;;;;;;;;;;;;5024101;28;19987;-86
2022/07/22 05:06:26;;;;;;;;;;;;;;;;;;5024074;28;20360;-86
2022/07/22 05:08:52;;;;;;;;;;;;;;;;;;5024763;28;20352;-87
2022/07/22 05:11:17;;;;;;;;;;;;;;;;;;5022191;28;20040;-85
2022/07/22 05:13:42;;;;;;;;;;;;;;;;;;5019217;28;20330;-86
2022/07/22 05:16:07;;;;;;;;;;;;;;;;;;5022063;28;19940;-86
2022/07/22 05:18:33;;;;;;;;;;;;;;;;;;5018608;28;19936;-85
2022/07/22 05:20:58;;;;;;;;;;;;;;;;;;5021855;28;19960;-85
2022/07/22 05:23:23;;;;;;;;;;;;;;;;;;5008157;28;20510;-85
2022/07/22 05:25:48;;;;;;;;;;;;;;;;;;5019427;28;19920;-85
2022/07/22 05:28:14;;;;;;;;;;;;;;;;;;5028183;28;20491;-85
2022/07/22 05:30:39;;;;;;;;;;;;;;;;;;5024657;28;19959;-85
2022/07/22 05:33:04;;;;;;;;;;;;;;;;;;5024044;28;20394;-85
2022/07/22 05:35:29;;;;;;;;;;;;;;;;;;5021534;28;19924;-86
2022/07/22 05:37:54;;;;;;;;;;;;;;;;;;5022982;28;19956;-86
2022/07/22 05:40:19;;;;;;;;;;;;;;;;;;5018227;28;20491;-86
2022/07/22 05:42:45;;;;;;;;;;;;;;;;;;5019873;28;19921;-84
2022/07/22 05:45:10;;;;;;;;;;;;;;;;;;5022209;28;20376;-85
2022/07/22 05:47:35;;;;;;;;;;;;;;;;;;5019463;28;19979;-86
2022/07/22 05:50:00;;;;;;;;;;;;;;;;;;5021429;28;19921;-86
2022/07/22 05:52:25;;;;;;;;;;;;;;;;;;5019355;28;19921;-87
2022/07/22 05:54:50;;;;;;;;;;;;;;;;;;5019588;28;20406;-86
2022/07/22 05:57:16;;;;;;;;;;;;;;;;;;5008033;28;20153;-86
2022/07/22 05:59:41;;;;;;;;;;;;;;;;;;5022008;28;19921;-85
2022/07/22 06:02:06;;;;;;;;;;;;;;;;;;5018749;28;19913;-88
2022/07/22 06:04:31;;;;;;;;;;;;;;;;;;5019016;28;20200;-88
2022/07/22 06:06:57;;;;;;;;;;;;;;;;;;5015485;28;20314;-88
2022/07/22 06:09:22;;;;;;;;;;;;;;;;;;5019831;28;19956;-89
2022/07/22 06:11:47;;;;;;;;;;;;;;;;;;5017651;28;19939;-89
2022/07/22 06:14:12;;;;;;;;;;;;;;;;;;5021978;28;19967;-89
2022/07/22 06:16:37;;;;;;;;;;;;;;;;;;5016666;28;19956;-89
2022/07/22 06:19:03;;;;;;;;;;;;;;;;;;5022020;28;19917;-89
2022/07/22 06:21:28;;;;;;;;;;;;;;;;;;5018081;28;19917;-88
2022/07/22 06:23:53;;;;;;;;;;;;;;;;;;5023142;28;19921;-87
2022/07/22 06:26:18;;;;;;;;;;;;;;;;;;5019083;28;20362;-87
2022/07/22 06:28:43;;;;;;;;;;;;;;;;;;5022111;28;19917;-87
2022/07/22 06:31:08;;;;;;;;;;;;;;;;;;5020361;28;20418;-87
2022/07/22 06:33:33;;;;;;;;;;;;;;;;;;5007508;28;19913;-87
2022/07/22 06:35:59;;;;;;;;;;;;;;;;;;5016098;28;19967;-87
2022/07/22 06:38:24;;;;;;;;;;;;;;;;;;5020912;28;19975;-89
2022/07/22 06:40:49;;;;;;;;;;;;;;;;;;5020187;28;19917;-88
2022/07/22 06:43:14;;;;;;;;;;;;;;;;;;5023656;28;19913;-87
2022/07/22 06:45:39;;;;;;;;;;;;;;;;;;5022588;28;20355;-88
2022/07/22 06:48:04;;;;;;;;;;;;;;;;;;5018878;28;19940;-88
2022/07/22 06:50:30;;;;;;;;;;;;;;;;;;5022357;28;19919;-88
2022/07/22 06:52:55;;;;;;;;;;;;;;;;;;5020612;28;19925;-88
2022/07/22 06:55:20;;;;;;;;;;;;;;;;;;5025156;28;19920;-89
2022/07/22 06:57:45;;;;;;;;;;;;;;;;;;5021466;28;19928;-88
2022/07/22 07:00:10;;;;;;;;;;;;;;;;;;4998400;28;20055;-87
2022/07/22 07:02:36;;;;;;;;;;;;;;;;;;5014977;28;19997;-88
2022/07/22 07:05:01;;;;;;;;;;;;;;;;;;5014371;28;20395;-89
2022/07/22 07:07:26;;;;;;;;;;;;;;;;;;5015994;28;20145;-87
2022/07/22 07:09:51;;;;;;;;;;;;;;;;;;5016802;28;19976;-88
2022/07/22 07:12:16;;;;;;;;;;;;;;;;;;5017711;28;19921;-88
2022/07/22 07:14:41;;;;;;;;;;;;;;;;;;5017571;28;20052;-88
2022/07/22 07:17:07;;;;;;;;;;;;;;;;;;5016084;28;19914;-89
2022/07/22 07:19:32;;;;;;;;;;;;;;;;;;5016280;28;19921;-87
2022/07/22 07:21:57;;;;;;;;;;;;;;;;;;5013801;28;19932;-89
2022/07/22 07:24:22;;;;;;;;;;;;;;;;;;5020981;28;19920;-87
2022/07/22 07:26:47;;;;;;;;;;;;;;;;;;5020442;28;19941;-89
2022/07/22 07:29:12;;;;;;;;;;;;;;;;;;5019065;28;20494;-90
2022/07/22 07:31:38;;;;;;;;;;;;;;;;;;5016406;28;19917;-90
2022/07/22 07:34:03;;;;;;;;;;;;;;;;;;5014936;28;20404;-88
2022/07/22 07:36:28;;;;;;;;;;;;;;;;;;5018173;28;19917;-87
2022/07/22 07:38:53;;;;;;;;;;;;;;;;;;5023368;28;19921;-89
2022/07/22 07:41:19;;;;;;;;;;;;;;;;;;5023111;28;19913;-89
2022/07/22 07:43:44;;;;;;;;;;;;;;;;;;5020274;28;19921;-88
2022/07/22 07:46:09;;;;;;;;;;;;;;;;;;5023753;28;19913;-87
2022/07/22 07:48:34;;;;;;;;;;;;;;;;;;5007656;28;20398;-88
2022/07/22 07:50:59;;;;;;;;;;;;;;;;;;5020417;28;19921;-88
2022/07/22 07:53:24;;;;;;;;;;;;;;;;;;5026065;28;19917;-89
2022/07/22 07:55:50;;;;;;;;;;;;;;;;;;5027214;28;19913;-89
2022/07/22 07:58:15;;;;;;;;;;;;;;;;;;5026754;28;19917;-89
2022/07/22 08:00:42;;;;;;;;;;;;;;;;;;5025634;28;19936;-90
2022/07/22 08:03:07;;;;;;;;;;;;;;;;;;5021460;28;19981;-89
2022/07/22 08:05:32;;;;;;;;;;;;;;;;;;5019413;28;20046;-88
2022/07/22 08:07:57;;;;;;;;;;;;;;;;;;5021438;28;20001;-90
2022/07/22 08:10:23;;;;;;;;;;;;;;;;;;5015504;28;19913;-89
2022/07/22 08:12:48;;;;;;;;;;;;;;;;;;5022785;28;20460;-92
2022/07/22 08:15:13;;;;;;;;;;;;;;;;;;5025629;28;20525;-89
2022/07/22 08:17:38;;;;;;;;;;;;;;;;;;5018926;28;20386;-89
2022/07/22 08:20:03;;;;;;;;;;;;;;;;;;5024189;28;19953;-90
2022/07/22 08:22:28;;;;;;;;;;;;;;;;;;5023561;28;20015;-91
2022/07/22 08:24:54;;;;;;;;;;;;;;;;;;5022206;28;19965;-90
2022/07/22 08:27:19;;;;;;;;;;;;;;;;;;5019707;28;19925;-89
2022/07/22 08:29:44;;;;;;;;;;;;;;;;;;5006559;28;19913;-93
2022/07/22 08:32:09;;;;;;;;;;;;;;;;;;5029690;28;19994;-90
2022/07/22 08:34:34;;;;;;;;;;;;;;;;;;5021147;28;19913;-91
2022/07/22 08:36:59;;;;;;;;;;;;;;;;;;5020514;28;20450;-89
2022/07/22 08:39:25;;;;;;;;;;;;;;;;;;5020871;28;19929;-90
2022/07/22 08:41:50;;;;;;;;;;;;;;;;;;5021990;28;20080;-89
2022/07/22 08:44:15;;;;;;;;;;;;;;;;;;5025819;28;19920;-90
2022/07/22 08:46:40;;;;;;;;;;;;;;;;;;5022551;28;19917;-89
2022/07/22 08:49:06;;;;;;;;;;;;;;;;;;5024302;28;19912;-91
2022/07/22 08:51:31;;;;;;;;;;;;;;;;;;5025443;28;19959;-90
2022/07/22 08:53:56;;;;;;;;;;;;;;;;;;5030241;28;20075;-91
2022/07/22 08:56:22;;;;;;;;;;;;;;;;;;5021774;28;19917;-89
2022/07/22 08:58:47;;;;;;;;;;;;;;;;;;5018932;28;19921;-89
2022/07/22 09:01:12;;;;;;;;;;;;;;;;;;5022516;28;19924;-89
2022/07/22 09:03:37;;;;;;;;;;;;;;;;;;5026025;28;19913;-91
2022/07/22 09:06:02;;;;;;;;;;;;;;;;;;5031817;28;20441;-92
2022/07/22 09:08:28;;;;;;;;;;;;;;;;;;5018577;28;19909;-91
2022/07/22 09:10:53;;;;;;;;;;;;;;;;;;5024214;28;20621;-93
2022/07/22 09:13:21;;;;;;;;;;;;;;;;;;5029718;28;19928;-92
2022/07/22 09:15:46;;;;;;;;;;;;;;;;;;5024358;28;19917;-91
2022/07/22 09:18:11;;;;;;;;;;;;;;;;;;5022496;28;19924;-93
2022/07/22 09:20:37;;;;;;;;;;;;;;;;;;5029507;28;19917;-91
2022/07/22 09:23:02;;;;;;;;;;;;;;;;;;5031640;28;20298;-91
2022/07/22 09:25:27;;;;;;;;;;;;;;;;;;5027994;28;20157;-92
2022/07/22 09:27:52;;;;;;;;;;;;;;;;;;5031298;28;19913;-93
2022/07/22 09:30:18;;;;;;;;;;;;;;;;;;5027272;28;20434;-91
2022/07/22 09:32:45;;;;;;;;;;;;;;;;;;5021023;28;20301;-92
2022/07/22 09:35:13;;;;;;;;;;;;;;;;;;5024865;28;20367;-92
2022/07/22 09:37:38;;;;;;;;;;;;;;;;;;5023654;28;19971;-91
2022/07/22 09:40:06;;;;;;;;;;;;;;;;;;5028967;28;19914;-91
2022/07/22 09:42:31;;;;;;;;;;;;;;;;;;5023414;28;19921;-91
2022/07/22 09:44:56;;;;;;;;;;;;;;;;;;5026594;28;19940;-92
2022/07/22 09:47:21;;;;;;;;;;;;;;;;;;5025110;28;19975;-91
2022/07/22 09:49:46;;;;;;;;;;;;;;;;;;5023032;28;19921;-90
2022/07/22 09:52:12;;;;;;;;;;;;;;;;;;5019802;28;20290;-91
2022/07/22 09:54:37;;;;;;;;;;;;;;;;;;5019757;28;20384;-92
2022/07/22 09:57:02;;;;;;;;;;;;;;;;;;5017752;28;19913;-91
2022/07/22 09:59:27;;;;;;;;;;;;;;;;;;5028915;28;19963;-91
2022/07/22 10:01:53;;;;;;;;;;;;;;;;;;5022195;28;19988;-92
2022/07/22 10:04:18;;;;;;;;;;;;;;;;;;5026607;28;20359;-89
2022/07/22 10:06:43;;;;;;;;;;;;;;;;;;5028288;28;19940;-91
2022/07/22 10:09:08;;;;;;;;;;;;;;;;;;5030392;28;19910;-93
2022/07/22 10:11:37;;;;;;;;;;;;;;;;;;5028271;28;20015;-92
2022/07/22 10:14:02;;;;;;;;;;;;;;;;;;5031274;28;20003;-92
2022/07/22 10:16:27;;;;;;;;;;;;;;;;;;5029476;28;19998;-92
2022/07/22 10:18:52;;;;;;;;;;;;;;;;;;5032332;28;19924;-93
2022/07/22 10:21:18;;;;;;;;;;;;;;;;;;5028336;28;19921;-94
2022/07/22 10:23:43;;;;;;;;;;;;;;;;;;5013790;28;19925;-92
2022/07/22 10:26:08;;;;;;;;;;;;;;;;;;5017095;28;19917;-92
2022/07/22 10:28:33;;;;;;;;;;;;;;;;;;5023474;28;19982;-91
2022/07/22 10:30:59;;;;;;;;;;;;;;;;;;5028444;28;19914;-91
2022/07/22 10:33:24;;;;;;;;;;;;;;;;;;5018312;28;19909;-92
2022/07/22 10:35:49;;;;;;;;;;;;;;;;;;5020626;28;19918;-91
2022/07/22 10:38:19;;;;;;;;;;;;;;;;;;5025647;28;20367;-91
2022/07/22 10:40:44;;;;;;;;;;;;;;;;;;5025291;28;19917;-93
2022/07/22 10:43:09;;;;;;;;;;;;;;;;;;5024939;28;19915;-92
2022/07/22 10:45:34;;;;;;;;;;;;;;;;;;5036744;28;20390;-93
2022/07/22 10:47:59;;;;;;;;;;;;;;;;;;5021883;28;20385;-93
2022/07/22 10:50:27;;;;;;;;;;;;;;;;;;5020528;28;20426;-91
2022/07/22 10:52:57;;;;;;;;;;;;;;;;;;5021673;28;20016;-93
2022/07/22 10:55:22;;;;;;;;;;;;;;;;;;5031353;28;19913;-92
2022/07/22 10:57:50;;;;;;;;;;;;;;;;;;5028834;28;19917;-92
2022/07/22 11:00:19;;;;;;;;;;;;;;;;;;5030744;28;19960;-94
2022/07/22 11:02:52;;;;;;;;;;;;;;;;;;5016299;28;19919;-93
2022/07/22 11:05:22;;;;;;;;;;;;;;;;;;5033197;28;19995;-92
2022/07/22 11:07:47;;;;;;;;;;;;;;;;;;5032796;28;19917;-90
2022/07/22 11:10:18;;;;;;;;;;;;;;;;;;5028824;28;19935;-93
2022/07/22 11:12:43;;;;;;;;;;;;;;;;;;5034262;28;19917;-93
2022/07/22 11:15:08;;;;;;;;;;;;;;;;;;5034396;28;20367;-91
2022/07/22 11:17:36;;;;;;;;;;;;;;;;;;5033934;28;20370;-94
2022/07/22 11:20:02;;;;;;;;;;;;;;;;;;5039123;28;20319;-91
2022/07/22 11:22:27;;;;;;;;;;;;;;;;;;5026579;28;19948;-90
2022/07/22 11:24:52;;;;;;;;;;;;;;;;;;5023947;28;19921;-91
2022/07/22 11:27:18;;;;;;;;;;;;;;;;;;5020122;28;19921;-94
2022/07/22 11:29:45;;;;;;;;;;;;;;;;;;5033503;28;20187;-92
2022/07/22 11:32:13;;;;;;;;;;;;;;;;;;5030857;28;19917;-91
2022/07/22 11:34:46;;;;;;;;;;;;;;;;;;5025613;28;19916;-92
2022/07/22 11:37:11;;;;;;;;;;;;;;;;;;5032002;28;19921;-91
2022/07/22 11:39:36;;;;;;;;;;;;;;;;;;5028853;28;20409;-91
2022/07/22 11:42:01;;;;;;;;;;;;;;;;;;5006509;28;20585;-92
2022/07/22 11:44:27;;;;;;;;;;;;;;;;;;5025707;28;19913;-93
2022/07/22 11:46:52;;;;;;;;;;;;;;;;;;5013503;28;19917;-91
2022/07/22 11:49:17;;;;;;;;;;;;;;;;;;5028477;28;19925;-94
2022/07/22 11:51:42;;;;;;;;;;;;;;;;;;5023195;28;19917;-92
2022/07/22 11:54:08;;;;;;;;;;;;;;;;;;5025700;28;19991;-92
2022/07/22 11:56:33;;;;;;;;;;;;;;;;;;5034451;28;19917;-90
2022/07/22 11:58:58;;;;;;;;;;;;;;;;;;5020998;28;20006;-93
2022/07/22 12:01:23;;;;;;;;;;;;;;;;;;5047113;22;19924;-87
2022/07/22 12:03:48;;;;;;;;;;;;;;;;;;5049752;28;20008;-87
2022/07/22 12:06:13;;;;;;;;;;;;;;;;;;5049599;28;19939;-87
2022/07/22 12:08:39;;;;;;;;;;;;;;;;;;5050690;28;19962;-87
2022/07/22 12:11:04;;;;;;;;;;;;;;;;;;5046366;28;19936;-87
2022/07/22 12:13:29;;;;;;;;;;;;;;;;;;5020241;28;20004;-87
2022/07/22 12:15:54;;;;;;;;;;;;;;;;;;5025470;28;19952;-87
2022/07/22 12:18:20;;;;;;;;;;;;;;;;;;5014553;28;20375;-88
2022/07/22 12:20:45;;;;;;;;;;;;;;;;;;5025335;28;19952;-87
2022/07/22 12:23:10;;;;;;;;;;;;;;;;;;5030279;28;19967;-86
2022/07/22 12:25:35;;;;;;;;;;;;;;;;;;5020426;28;19959;-87
2022/07/22 12:28:01;;;;;;;;;;;;;;;;;;5031663;28;20179;-87
2022/07/22 12:30:26;;;;;;;;;;;;;;;;;;5022196;28;20354;-87
2022/07/22 12:32:51;;;;;;;;;;;;;;;;;;5007062;28;19980;-87
2022/07/22 12:35:16;;;;;;;;;;;;;;;;;;5031123;28;20172;-87
2022/07/22 12:37:42;;;;;;;;;;;;;;;;;;5023072;28;20390;-88
2022/07/22 12:40:07;;;;;;;;;;;;;;;;;;5024929;28;20282;-88
2022/07/22 12:42:32;;;;;;;;;;;;;;;;;;5027634;28;19928;-87
2022/07/22 12:44:57;;;;;;;;;;;;;;;;;;5022156;28;19987;-87
2022/07/22 12:47:22;;;;;;;;;;;;;;;;;;5027695;28;20007;-89
2022/07/22 12:49:47;;;;;;;;;;;;;;;;;;5023235;28;19983;-88
2022/07/22 12:52:13;;;;;;;;;;;;;;;;;;5024095;28;19920;-88
2022/07/22 12:54:38;;;;;;;;;;;;;;;;;;5022655;28;19914;-87
2022/07/22 12:57:03;;;;;;;;;;;;;;;;;;5024477;28;20025;-88
2022/07/22 12:59:28;;;;;;;;;;;;;;;;;;5028637;28;19924;-87
2022/07/22 13:01:53;;;;;;;;;;;;;;;;;;5023175;28;20341;-90
2022/07/22 13:04:19;;;;;;;;;;;;;;;;;;5025663;28;19939;-88
2022/07/22 13:06:44;;;;;;;;;;;;;;;;;;5016257;28;19924;-88
2022/07/22 13:09:09;;;;;;;;;;;;;;;;;;5022011;28;20514;-87
2022/07/22 13:11:43;;;;;;;;;;;;;;;;;;5027455;28;19913;-87
2022/07/22 13:14:08;;;;;;;;;;;;;;;;;;5021359;28;20507;-86
2022/07/22 13:16:33;;;;;;;;;;;;;;;;;;5012043;28;20024;-86
2022/07/22 13:18:58;;;;;;;;;;;;;;;;;;5017371;28;19963;-87
2022/07/22 13:21:23;;;;;;;;;;;;;;;;;;5021032;28;19913;-86
2022/07/22 13:23:49;;;;;;;;;;;;;;;;;;5025708;28;20496;-87
2022/07/22 13:26:14;;;;;;;;;;;;;;;;;;5022865;28;19920;-88
2022/07/22 13:28:39;;;;;;;;;;;;;;;;;;5027099;28;19957;-85
2022/07/22 13:31:04;;;;;;;;;;;;;;;;;;5019446;28;20241;-85
2022/07/22 13:33:29;;;;;;;;;;;;;;;;;;5027798;28;20235;-86
2022/07/22 13:35:55;;;;;;;;;;;;;;;;;;5018101;28;19913;-87
2022/07/22 13:38:20;;;;;;;;;;;;;;;;;;5009800;28;20148;-87
2022/07/22 13:40:51;;;;;;;;;;;;;;;;;;5021732;28;19913;-86
2022/07/22 13:43:17;;;;;;;;;;;;;;;;;;5011419;28;19921;-86
2022/07/22 13:45:42;;;;;;;;;;;;;;;;;;5016896;28;19991;-86
2022/07/22 13:48:07;;;;;;;;;;;;;;;;;;5018835;28;20437;-86
2022/07/22 13:50:32;;;;;;;;;;;;;;;;;;5022585;28;19917;-86
2022/07/22 13:52:57;;;;;;;;;;;;;;;;;;5018764;28;19913;-86
2022/07/22 13:55:23;;;;;;;;;;;;;;;;;;5017086;28;19936;-86
2022/07/22 13:57:48;;;;;;;;;;;;;;;;;;5015230;28;19975;-86
2022/07/22 14:00:13;;;;;;;;;;;;;;;;;;5016371;28;20398;-85
2022/07/22 14:02:38;;;;;;;;;;;;;;;;;;5017245;28;19971;-85
2022/07/22 14:05:03;;;;;;;;;;;;;;;;;;5029801;28;20382;-86
2022/07/22 14:07:29;;;;;;;;;;;;;;;;;;5027830;28;19991;-87
2022/07/22 14:09:54;;;;;;;;;;;;;;;;;;5026205;28;19913;-86
2022/07/22 14:12:19;;;;;;;;;;;;;;;;;;5003594;28;19924;-85
2022/07/22 14:14:44;;;;;;;;;;;;;;;;;;5003011;28;19966;-87
2022/07/22 14:17:09;;;;;;;;;;;;;;;;;;5012925;28;19925;-86
2022/07/22 14:19:35;;;;;;;;;;;;;;;;;;5003304;28;19925;-85
2022/07/22 14:22:00;;;;;;;;;;;;;;;;;;5016605;28;19917;-86
2022/07/22 14:24:26;;;;;;;;;;;;;;;;;;5025440;28;19914;-86
2022/07/22 14:26:51;;;;;;;;;;;;;;;;;;5026904;28;19955;-86
2022/07/22 14:29:16;;;;;;;;;;;;;;;;;;5019106;28;20123;-86
2022/07/22 14:31:41;;;;;;;;;;;;;;;;;;5015366;28;20439;-87
2022/07/22 14:34:06;;;;;;;;;;;;;;;;;;5027794;28;19913;-86
2022/07/22 14:36:31;;;;;;;;;;;;;;;;;;5024972;28;19972;-86
2022/07/22 14:38:57;;;;;;;;;;;;;;;;;;5022901;28;20093;-86
2022/07/22 14:41:22;;;;;;;;;;;;;;;;;;5022139;28;19970;-86
2022/07/22 14:43:47;;;;;;;;;;;;;;;;;;5020161;28;19917;-86
2022/07/22 14:46:12;;;;;;;;;;;;;;;;;;5025353;28;20398;-85
2022/07/22 14:48:37;;;;;;;;;;;;;;;;;;5019067;28;20506;-86
2022/07/22 14:51:03;;;;;;;;;;;;;;;;;;5015006;28;19917;-86
2022/07/22 14:53:28;;;;;;;;;;;;;;;;;;5027791;28;20294;-85
2022/07/22 14:55:53;;;;;;;;;;;;;;;;;;5031789;28;19921;-85
2022/07/22 14:58:18;;;;;;;;;;;;;;;;;;5025659;28;20471;-86
2022/07/22 15:00:43;;;;;;;;;;;;;;;;;;5014869;28;20291;-87
2022/07/22 15:03:09;;;;;;;;;;;;;;;;;;5021561;28;19921;-86
2022/07/22 15:05:34;;;;;;;;;;;;;;;;;;5013603;28;19967;-86
2022/07/22 15:07:59;;;;;;;;;;;;;;;;;;5030055;28;19967;-86
2022/07/22 15:10:24;;;;;;;;;;;;;;;;;;5030080;28;19913;-87
2022/07/22 15:12:49;;;;;;;;;;;;;;;;;;5021473;28;19921;-87
2022/07/22 15:15:15;;;;;;;;;;;;;;;;;;5026189;28;20023;-87
2022/07/22 15:17:40;;;;;;;;;;;;;;;;;;5032061;28;19998;-85
2022/07/22 15:20:05;;;;;;;;;;;;;;;;;;5028505;28;19925;-84
2022/07/22 15:22:30;;;;;;;;;;;;;;;;;;5026952;28;19913;-84
2022/07/22 15:24:56;;;;;;;;;;;;;;;;;;5029425;28;19950;-86
2022/07/22 15:27:21;;;;;;;;;;;;;;;;;;5030699;28;19917;-86
2022/07/22 15:29:47;;;;;;;;;;;;;;;;;;5032244;28;19919;-85
2022/07/22 15:32:12;;;;;;;;;;;;;;;;;;5031862;28;19913;-86
2022/07/22 15:34:38;;;;;;;;;;;;;;;;;;5031498;28;20000;-85
2022/07/22 15:37:03;;;;;;;;;;;;;;;;;;5027925;28;20263;-86
2022/07/22 15:39:28;;;;;;;;;;;;;;;;;;5031155;28;19921;-85
2022/07/22 15:41:53;;;;;;;;;;;;;;;;;;5014097;28;19971;-86
2022/07/22 15:44:18;;;;;;;;;;;;;;;;;;5031097;28;19913;-87
2022/07/22 15:46:44;;;;;;;;;;;;;;;;;;5031956;28;20007;-87
2022/07/22 15:49:11;;;;;;;;;;;;;;;;;;5012227;28;19959;-87
2022/07/22 15:51:38;;;;;;;;;;;;;;;;;;5021871;28;22172;-87
2022/07/22 15:54:03;;;;;;;;;;;;;;;;;;5030547;28;20335;-88
2022/07/22 15:56:28;;;;;;;;;;;;;;;;;;5025443;28;19921;-87
2022/07/22 16:01:37;;;;;;;;;;;;;;;;;;5022524;28;19929;-87
2022/07/22 16:04:02;;;;;;;;;;;;;;;;;;5015337;28;20211;-87
2022/07/22 16:06:28;;;;;;;;;;;;;;;;;;5013830;28;20698;-87
2022/07/22 16:08:54;;;;;;;;;;;;;;;;;;5015716;28;20268;-86
2022/07/22 16:11:20;;;;;;;;;;;;;;;;;;5011754;28;19916;-85
2022/07/22 16:13:45;;;;;;;;;;;;;;;;;;5024701;28;19917;-86
2022/07/22 16:16:10;;;;;;;;;;;;;;;;;;5012150;28;19979;-87
2022/07/22 16:18:35;;;;;;;;;;;;;;;;;;5013012;28;19921;-86
2022/07/22 16:21:00;;;;;;;;;;;;;;;;;;5018268;28;21227;-87
2022/07/22 16:23:25;;;;;;;;;;;;;;;;;;5020814;28;19925;-87
2022/07/22 16:25:51;;;;;;;;;;;;;;;;;;5019745;28;19917;-86
2022/07/22 16:28:16;;;;;;;;;;;;;;;;;;5006136;28;19913;-87
2022/07/22 16:30:41;;;;;;;;;;;;;;;;;;5017646;28;20420;-87
2022/07/22 16:33:06;;;;;;;;;;;;;;;;;;5017637;28;20008;-86
2022/07/22 16:35:32;;;;;;;;;;;;;;;;;;5016891;28;19917;-86